createdAt,value
2019-01-19T00:02:59.362Z,99.10
2019-01-19T00:06:05.814Z,98.90
2019-01-19T00:08:53.979Z,99.00
2019-01-19T00:12:05.720Z,99.20
2019-01-19T00:14:47.539Z,99.20
2019-01-19T00:17:54.798Z,99.30
2019-01-19T00:20:47.198Z,99.50
2019-01-19T00:24:01.907Z,99.50
2019-01-19T00:26:59.073Z,99.70
2019-01-19T00:30:05.529Z,99.70
2019-01-19T00:32:52.176Z,99.70
2019-01-19T00:35:39.317Z,99.80
2019-01-19T00:38:39.370Z,99.70
2019-01-19T00:41:36.801Z,99.90
2019-01-19T00:44:30.502Z,99.90
2019-01-19T00:47:07.770Z,99.80
2019-01-19T00:49:44.843Z,99.80
2019-01-19T00:52:32.229Z,99.90
2019-01-19T00:55:47.550Z,99.90
2019-01-19T00:58:43.560Z,99.90
2019-01-19T01:01:23.566Z,99.90
2019-01-19T01:04:27.921Z,99.80
2019-01-19T01:07:20.653Z,99.70
2019-01-19T01:10:01.797Z,99.40
2019-01-19T01:12:52.844Z,99.60
2019-01-19T01:16:10.904Z,99.80
2019-01-19T01:19:16.988Z,99.90
2019-01-19T01:22:19.521Z,99.90
2019-01-19T01:25:06.451Z,99.80
2019-01-19T01:27:45.870Z,99.70
2019-01-19T01:30:48.226Z,99.90
2019-01-19T01:33:50.386Z,99.90
2019-01-19T01:37:02.466Z,99.90
2019-01-19T01:40:42.242Z,99.90
2019-01-19T01:43:17.283Z,99.90
2019-01-19T01:46:35.317Z,99.90
2019-01-19T01:49:34.781Z,99.90
2019-01-19T01:52:32.444Z,99.90
2019-01-19T01:55:24.946Z,99.90
2019-01-19T01:58:17.995Z,99.90
2019-01-19T02:01:22.502Z,99.80
2019-01-19T02:04:08.541Z,99.90
2019-01-19T02:07:16.922Z,99.90
2019-01-19T02:10:26.051Z,99.90
2019-01-19T02:13:26.220Z,99.90
2019-01-19T02:16:50.622Z,99.60
2019-01-19T02:19:39.716Z,99.80
2019-01-19T02:22:48.304Z,99.80
2019-01-19T02:25:48.934Z,99.80
2019-01-19T02:29:14.050Z,99.90
2019-01-19T02:32:05.270Z,99.90
2019-01-19T02:34:52.194Z,99.90
2019-01-19T02:37:51.567Z,99.90
2019-01-19T02:40:59.067Z,99.90
2019-01-19T02:44:06.609Z,99.90
2019-01-19T02:47:21.127Z,99.90
2019-01-19T02:50:36.907Z,99.90
2019-01-19T02:53:41.929Z,99.90
2019-01-19T02:56:26.674Z,99.90
2019-01-19T02:59:28.603Z,99.90
2019-01-19T03:02:56.180Z,99.90
2019-01-19T03:05:37.298Z,99.90
2019-01-19T03:08:55.160Z,99.90
2019-01-19T03:12:12.814Z,99.90
2019-01-19T03:15:02.648Z,99.90
2019-01-19T03:18:05.002Z,99.90
2019-01-19T03:20:54.105Z,99.90
2019-01-19T03:24:21.754Z,99.90
2019-01-19T03:27:13.042Z,99.90
2019-01-19T03:30:13.935Z,99.90
2019-01-19T03:33:33.761Z,99.90
2019-01-19T03:36:55.315Z,99.90
2019-01-19T03:39:35.414Z,99.90
2019-01-19T03:42:28.477Z,99.90
2019-01-19T03:45:27.394Z,99.90
2019-01-19T03:48:16.813Z,99.90
2019-01-19T03:51:14.255Z,99.90
2019-01-19T03:54:15.477Z,99.90
2019-01-19T03:57:08.524Z,99.90
2019-01-19T04:00:31.508Z,99.90
2019-01-19T04:03:26.727Z,99.90
2019-01-19T04:06:44.664Z,99.90
2019-01-19T04:10:18.567Z,99.90
2019-01-19T04:13:20.589Z,99.90
2019-01-19T04:16:46.518Z,99.90
2019-01-19T04:19:38.014Z,99.90
2019-01-19T04:22:41.028Z,99.90
2019-01-19T04:25:36.720Z,99.90
2019-01-19T04:28:05.592Z,99.90
2019-01-19T04:30:35.495Z,99.90
2019-01-19T04:33:02.872Z,99.90
2019-01-19T04:35:31.235Z,99.90
2019-01-19T04:37:59.003Z,99.90
2019-01-19T04:40:26.770Z,99.90
2019-01-19T04:42:55.339Z,99.90
2019-01-19T04:45:23.190Z,99.90
2019-01-19T04:47:51.086Z,99.90
2019-01-19T04:50:19.206Z,99.90
2019-01-19T04:52:47.259Z,99.90
2019-01-19T04:55:14.750Z,99.90
2019-01-19T04:57:42.215Z,99.90
2019-01-19T05:00:17.792Z,99.90
2019-01-19T05:02:45.614Z,99.90
2019-01-19T05:05:13.669Z,99.90
2019-01-19T05:07:41.924Z,99.90
2019-01-19T05:10:09.997Z,99.90
2019-01-19T05:12:37.912Z,99.90
2019-01-19T05:15:09.046Z,99.90
2019-01-19T05:17:37.309Z,99.90
2019-01-19T05:20:06.210Z,99.90
2019-01-19T05:22:34.002Z,99.90
2019-01-19T05:25:01.899Z,99.90
2019-01-19T05:27:30.837Z,99.90
2019-01-19T05:29:59.034Z,99.90
2019-01-19T05:32:27.118Z,99.90
2019-01-19T05:34:55.790Z,99.90
2019-01-19T05:37:25.655Z,99.90
2019-01-19T05:39:53.887Z,99.90
2019-01-19T05:42:21.968Z,99.90
2019-01-19T05:44:50.252Z,99.70
2019-01-19T05:47:18.745Z,99.80
2019-01-19T05:49:48.059Z,99.70
2019-01-19T05:52:15.916Z,99.80
2019-01-19T05:54:44.510Z,99.90
2019-01-19T05:57:13.311Z,99.90
2019-01-19T05:59:41.103Z,99.90
2019-01-19T06:02:08.901Z,99.80
2019-01-19T06:04:38.462Z,99.70
2019-01-19T06:07:06.040Z,99.40
2019-01-19T06:09:33.993Z,99.30
2019-01-19T06:12:02.895Z,99.20
2019-01-19T06:14:30.729Z,99.50
2019-01-19T06:17:00.433Z,99.50
2019-01-19T06:19:28.968Z,99.50
2019-01-19T06:21:59.520Z,99.50
2019-01-19T06:24:27.078Z,99.60
2019-01-19T06:26:54.918Z,99.70
2019-01-19T06:29:22.749Z,99.80
2019-01-19T06:31:51.602Z,99.80
2019-01-19T06:34:19.990Z,99.90
2019-01-19T06:36:54.852Z,99.90
2019-01-19T06:39:19.575Z,99.90
2019-01-19T06:41:47.276Z,99.90
2019-01-19T06:44:15.048Z,99.90
2019-01-19T06:46:42.920Z,99.90
2019-01-19T06:49:11.007Z,99.90
2019-01-19T06:51:38.780Z,99.90
2019-01-19T06:54:07.332Z,99.90
2019-01-19T06:56:35.651Z,99.90
2019-01-19T06:59:23.269Z,99.90
2019-01-19T07:01:51.348Z,99.90
2019-01-19T07:04:19.133Z,99.90
2019-01-19T07:06:46.991Z,99.80
2019-01-19T07:09:14.774Z,99.90
2019-01-19T07:11:43.486Z,99.90
2019-01-19T07:14:10.991Z,99.90
2019-01-19T07:16:38.754Z,99.90
2019-01-19T07:19:06.817Z,99.80
2019-01-19T07:21:37.403Z,99.60
2019-01-19T07:24:05.171Z,99.60
2019-01-19T07:26:33.295Z,99.70
2019-01-19T07:29:01.464Z,99.90
2019-01-19T07:31:30.860Z,99.80
2019-01-19T07:34:05.045Z,99.70
2019-01-19T07:36:32.651Z,97.80
2019-01-19T07:39:01.705Z,97.40
2019-01-19T07:41:30.259Z,98.10
2019-01-19T07:43:57.811Z,98.40
2019-01-19T07:46:25.936Z,98.70
2019-01-19T07:48:53.451Z,98.80
2019-01-19T07:51:21.310Z,99.10
2019-01-19T07:53:49.335Z,99.00
2019-01-19T07:56:17.546Z,99.10
2019-01-19T07:58:45.809Z,99.20
2019-01-19T08:01:13.727Z,99.40
2019-01-19T08:03:41.181Z,99.40
2019-01-19T08:06:09.182Z,99.30
2019-01-19T08:08:36.776Z,99.40
2019-01-19T08:11:04.655Z,99.40
2019-01-19T08:13:32.258Z,99.10
2019-01-19T08:16:19.461Z,98.90
2019-01-19T08:18:47.058Z,98.90
2019-01-19T08:21:15.581Z,98.90
2019-01-19T08:23:49.780Z,98.80
2019-01-19T08:26:26.714Z,98.80
2019-01-19T08:28:54.721Z,98.70
2019-01-19T08:31:42.119Z,98.80
2019-01-19T08:34:10.356Z,98.70
2019-01-19T08:36:37.908Z,98.60
2019-01-19T08:39:08.192Z,98.40
2019-01-19T08:41:35.764Z,98.50
2019-01-19T08:44:04.817Z,98.10
2019-01-19T08:46:32.576Z,97.80
2019-01-19T08:49:00.081Z,97.60
2019-01-19T08:51:27.588Z,97.70
2019-01-19T08:53:55.433Z,98.00
2019-01-19T08:56:22.923Z,97.40
2019-01-19T08:58:52.135Z,97.30
2019-01-19T09:01:19.583Z,97.20
2019-01-19T09:03:47.024Z,96.90
2019-01-19T09:06:14.811Z,97.10
2019-01-19T09:08:42.710Z,97.10
2019-01-19T09:11:10.235Z,97.20
2019-01-19T09:13:38.296Z,97.10
2019-01-19T09:16:09.896Z,97.20
2019-01-19T09:18:37.897Z,96.90
2019-01-19T09:21:06.278Z,96.40
2019-01-19T09:23:50.304Z,96.40
2019-01-19T09:26:18.171Z,95.70
2019-01-19T09:28:45.746Z,95.90
2019-01-19T09:31:14.028Z,95.60
2019-01-19T09:33:41.577Z,95.20
2019-01-19T09:36:09.469Z,94.70
2019-01-19T09:38:38.640Z,94.70
2019-01-19T09:41:06.477Z,94.00
2019-01-19T09:43:34.798Z,94.00
2019-01-19T09:46:02.588Z,93.50
2019-01-19T09:48:30.862Z,93.90
2019-01-19T09:51:00.538Z,94.10
2019-01-19T09:53:28.128Z,93.80
2019-01-19T09:55:55.827Z,93.50
2019-01-19T09:58:23.697Z,93.50
2019-01-19T10:00:51.500Z,93.20
2019-01-19T10:03:19.399Z,92.60
2019-01-19T10:05:47.265Z,92.10
2019-01-19T10:08:14.954Z,92.50
2019-01-19T10:10:43.427Z,92.60
2019-01-19T10:13:11.619Z,92.60
2019-01-19T10:15:40.499Z,92.00
2019-01-19T10:18:08.764Z,91.40
2019-01-19T10:20:37.294Z,91.80
2019-01-19T10:23:04.868Z,90.00
2019-01-19T10:25:34.959Z,90.00
2019-01-19T10:28:02.735Z,90.10
2019-01-19T10:30:36.177Z,89.00
2019-01-19T10:33:05.213Z,89.30
2019-01-19T10:35:33.502Z,90.20
2019-01-19T10:38:02.160Z,88.30
2019-01-19T10:40:29.770Z,87.70
2019-01-19T10:42:57.645Z,85.70
2019-01-19T10:45:25.535Z,84.00
2019-01-19T10:47:55.437Z,85.10
2019-01-19T10:50:23.026Z,83.30
2019-01-19T10:52:51.128Z,81.80
2019-01-19T10:55:21.156Z,80.60
2019-01-19T10:57:48.758Z,79.30
2019-01-19T11:00:36.171Z,80.20
2019-01-19T11:03:05.112Z,80.60
2019-01-19T11:05:32.771Z,79.20
2019-01-19T11:08:04.005Z,78.90
2019-01-19T11:10:31.268Z,78.60
2019-01-19T11:13:01.958Z,78.50
2019-01-19T11:15:29.967Z,77.10
2019-01-19T11:17:58.199Z,76.00
2019-01-19T11:20:27.810Z,76.10
2019-01-19T11:22:59.789Z,74.50
2019-01-19T11:25:27.838Z,75.20
2019-01-19T11:27:55.578Z,75.70
2019-01-19T11:30:25.629Z,73.70
2019-01-19T11:32:54.097Z,72.00
2019-01-19T11:35:22.105Z,72.30
2019-01-19T11:37:50.531Z,69.10
2019-01-19T11:40:20.931Z,67.30
2019-01-19T11:42:48.679Z,66.50
2019-01-19T11:45:18.958Z,67.80
2019-01-19T11:47:46.733Z,67.30
2019-01-19T11:50:16.371Z,66.80
2019-01-19T11:52:44.458Z,68.70
2019-01-19T11:55:14.558Z,69.10
2019-01-19T11:57:43.077Z,65.50
2019-01-19T12:00:16.535Z,62.30
2019-01-19T12:02:44.415Z,61.00
2019-01-19T12:05:14.708Z,60.20
2019-01-19T12:07:43.369Z,59.30
2019-01-19T12:10:14.352Z,59.60
2019-01-19T12:12:43.555Z,60.20
2019-01-19T12:15:11.439Z,58.70
2019-01-19T12:17:39.610Z,59.70
2019-01-19T12:20:12.313Z,62.20
2019-01-19T12:22:40.210Z,60.40
2019-01-19T12:25:10.181Z,58.80
2019-01-19T12:27:38.877Z,58.20
2019-01-19T12:30:10.101Z,56.40
2019-01-19T12:32:40.730Z,54.20
2019-01-19T12:35:08.866Z,54.90
2019-01-19T12:37:37.342Z,56.30
2019-01-19T12:40:06.468Z,58.20
2019-01-19T12:42:35.095Z,57.10
2019-01-19T12:45:05.226Z,58.50
2019-01-19T12:47:33.307Z,55.70
2019-01-19T12:50:03.991Z,55.80
2019-01-19T12:52:33.903Z,56.10
2019-01-19T12:55:02.604Z,56.30
2019-01-19T12:57:31.036Z,54.60
2019-01-19T12:59:59.318Z,53.30
2019-01-19T13:02:27.553Z,50.70
2019-01-19T13:04:55.352Z,49.20
2019-01-19T13:07:26.950Z,49.10
2019-01-19T13:10:09.013Z,49.90
2019-01-19T13:12:44.101Z,50.70
2019-01-19T13:16:01.983Z,52.10
2019-01-19T13:19:05.979Z,51.80
2019-01-19T13:22:26.818Z,50.40
2019-01-19T13:25:18.977Z,51.00
2019-01-19T13:28:22.870Z,50.40
2019-01-19T13:31:13.204Z,51.20
2019-01-19T13:33:56.712Z,51.10
2019-01-19T13:37:04.991Z,52.30
2019-01-19T13:40:21.991Z,51.60
2019-01-19T13:43:46.709Z,52.20
2019-01-19T13:46:53.812Z,50.90
2019-01-19T13:49:46.238Z,49.00
2019-01-19T13:52:55.722Z,49.60
2019-01-19T13:55:53.498Z,47.60
2019-01-19T13:58:53.025Z,46.10
2019-01-19T14:02:14.287Z,46.50
2019-01-19T14:05:05.952Z,47.30
2019-01-19T14:08:09.252Z,47.60
2019-01-19T14:11:05.871Z,49.30
2019-01-19T14:14:15.866Z,47.90
2019-01-19T14:17:01.498Z,44.60
2019-01-19T14:20:01.992Z,44.00
2019-01-19T14:23:16.419Z,46.20
2019-01-19T14:26:41.585Z,50.20
2019-01-19T14:29:36.756Z,51.90
2019-01-19T14:33:02.589Z,54.10
2019-01-19T14:36:07.126Z,55.20
2019-01-19T14:38:56.882Z,57.20
2019-01-19T14:42:03.715Z,58.90
2019-01-19T14:45:22.357Z,60.20
2019-01-19T14:48:10.808Z,61.80
2019-01-19T14:51:15.353Z,63.10
2019-01-19T14:54:23.777Z,63.90
2019-01-19T14:57:54.867Z,65.10
2019-01-19T15:00:57.915Z,65.70
2019-01-19T15:04:25.699Z,66.80
2019-01-19T15:07:27.829Z,67.00
2019-01-19T15:10:24.983Z,67.80
2019-01-19T15:13:45.185Z,68.60
2019-01-19T15:17:09.912Z,69.10
2019-01-19T15:20:25.465Z,69.90
2019-01-19T15:23:26.511Z,70.00
2019-01-19T15:26:51.736Z,70.60
2019-01-19T15:30:01.593Z,71.50
2019-01-19T15:33:20.960Z,71.50
2019-01-19T15:36:32.881Z,72.10
2019-01-19T15:39:29.388Z,73.00
2019-01-19T15:42:34.800Z,73.50
2019-01-19T15:45:56.398Z,73.90
2019-01-19T15:48:47.543Z,74.60
2019-01-19T15:52:05.151Z,75.70
2019-01-19T15:55:08.885Z,75.90
2019-01-19T15:57:46.746Z,76.60
2019-01-19T16:00:57.508Z,77.50
2019-01-19T16:03:46.620Z,77.50
2019-01-19T16:06:31.959Z,78.40
2019-01-19T16:09:37.696Z,78.70
2019-01-19T16:12:46.237Z,80.50
2019-01-19T16:16:07.493Z,81.00
2019-01-19T16:19:10.802Z,81.50
2019-01-19T16:22:22.210Z,82.60
2019-01-19T16:25:19.595Z,83.60
2019-01-19T16:28:42.462Z,83.60
2019-01-19T16:32:07.972Z,82.80
2019-01-19T16:35:01.191Z,83.00
2019-01-19T16:38:04.551Z,84.30
2019-01-19T16:41:25.968Z,85.30
2019-01-19T16:44:31.901Z,85.40
2019-01-19T16:47:21.018Z,86.00
2019-01-19T16:50:29.251Z,85.90
2019-01-19T16:53:24.279Z,86.20
2019-01-19T16:56:05.072Z,86.30
2019-01-19T16:59:09.486Z,86.50
2019-01-19T17:02:23.566Z,86.70
2019-01-19T17:05:20.449Z,87.20
2019-01-19T17:08:18.630Z,86.80
2019-01-19T17:11:31.401Z,87.10
2019-01-19T17:14:27.793Z,87.00
2019-01-19T17:17:20.200Z,88.80
2019-01-19T17:20:23.818Z,90.40
2019-01-19T17:23:38.171Z,90.30
2019-01-19T17:26:44.054Z,90.50
2019-01-19T17:29:39.046Z,91.10
2019-01-19T17:32:29.822Z,91.30
2019-01-19T17:35:23.104Z,91.50
2019-01-19T17:38:04.509Z,91.00
2019-01-19T17:41:16.448Z,90.80
2019-01-19T17:44:01.402Z,91.20
2019-01-19T17:46:58.742Z,91.80
2019-01-19T17:49:57.678Z,91.50
2019-01-19T17:52:56.703Z,91.80
2019-01-19T17:55:47.957Z,92.10
2019-01-19T17:59:00.147Z,92.30
2019-01-19T18:01:49.069Z,92.50
2019-01-19T18:04:47.635Z,92.60
2019-01-19T18:07:53.546Z,92.70
2019-01-19T18:10:54.125Z,92.70
2019-01-19T18:13:39.943Z,92.70
2019-01-19T18:16:52.136Z,93.40
2019-01-19T18:20:05.395Z,93.40
2019-01-19T18:23:18.520Z,93.60
2019-01-19T18:26:19.162Z,93.50
2019-01-19T18:29:11.176Z,94.00
2019-01-19T18:31:56.533Z,94.30
2019-01-19T18:35:07.937Z,94.10
2019-01-19T18:38:08.559Z,94.20
2019-01-19T18:40:57.419Z,94.30
2019-01-19T18:43:44.557Z,93.50
2019-01-19T18:47:08.988Z,93.90
2019-01-19T18:50:18.923Z,94.30
2019-01-19T18:53:14.742Z,94.50
2019-01-19T18:56:04.393Z,94.60
2019-01-19T18:59:00.815Z,94.20
2019-01-19T19:01:55.668Z,94.00
2019-01-19T19:04:58.750Z,93.60
2019-01-19T19:08:17.916Z,93.40
2019-01-19T19:11:42.509Z,93.80
2019-01-19T19:15:00.631Z,94.80
2019-01-19T19:18:06.315Z,93.50
2019-01-19T19:21:17.341Z,93.80
2019-01-19T19:24:25.143Z,94.10
2019-01-19T19:27:23.714Z,93.50
2019-01-19T19:30:37.254Z,95.20
2019-01-19T19:33:33.218Z,95.20
2019-01-19T19:36:41.378Z,95.60
2019-01-19T19:40:00.819Z,95.30
2019-01-19T19:42:47.450Z,96.20
2019-01-19T19:45:59.685Z,96.10
2019-01-19T19:49:05.257Z,96.20
2019-01-19T19:51:59.304Z,96.10
2019-01-19T19:54:29.504Z,96.20
2019-01-19T19:57:26.387Z,97.00
2019-01-19T19:59:59.124Z,97.10
2019-01-19T20:02:28.085Z,97.10
2019-01-19T20:04:55.697Z,97.10
2019-01-19T20:07:24.151Z,96.90
2019-01-19T20:09:52.355Z,96.60
2019-01-19T20:12:20.724Z,96.50
2019-01-19T20:14:48.319Z,97.10
2019-01-19T20:17:29.994Z,97.50
2019-01-19T20:19:57.988Z,97.60
2019-01-19T20:22:26.419Z,97.30
2019-01-19T20:25:49.245Z,97.30
2019-01-19T20:28:30.430Z,96.90
2019-01-19T20:31:06.799Z,97.30
2019-01-19T20:33:34.668Z,97.10
2019-01-19T20:36:10.424Z,96.60
2019-01-19T20:38:42.577Z,96.60
2019-01-19T20:41:10.121Z,96.70
2019-01-19T20:43:38.203Z,96.50
2019-01-19T20:46:06.011Z,95.90
2019-01-19T20:48:50.233Z,95.50
2019-01-19T20:51:31.898Z,94.90
2019-01-19T20:54:26.622Z,94.90
2019-01-19T20:57:12.762Z,95.00
2019-01-19T20:59:48.023Z,94.80
2019-01-19T21:02:15.524Z,94.90
2019-01-19T21:04:43.608Z,95.10
2019-01-19T21:07:11.131Z,95.20
2019-01-19T21:09:38.702Z,94.90
2019-01-19T21:12:53.093Z,95.30
2019-01-19T21:15:25.118Z,95.10
2019-01-19T21:17:59.608Z,95.50
2019-01-19T21:20:27.475Z,95.60
2019-01-19T21:23:19.731Z,95.60
2019-01-19T21:26:03.385Z,95.50
2019-01-19T21:32:20.081Z,96.30
2019-01-19T21:34:47.902Z,96.50
2019-01-19T21:37:20.892Z,96.70
2019-01-19T21:39:55.408Z,96.60
2019-01-19T21:43:15.717Z,96.50
2019-01-19T21:45:43.763Z,96.50
2019-01-19T21:48:11.861Z,96.20
2019-01-19T21:50:40.074Z,96.60
2019-01-19T21:53:08.493Z,97.20
2019-01-19T21:55:36.164Z,97.80
2019-01-19T21:58:12.546Z,97.30
2019-01-19T22:00:40.529Z,97.40
2019-01-19T22:03:08.961Z,97.80
2019-01-19T22:05:37.962Z,97.90
2019-01-19T22:08:17.302Z,98.30
2019-01-19T22:10:47.512Z,98.10
2019-01-19T22:13:15.282Z,97.70
2019-01-19T22:15:53.204Z,98.00
2019-01-19T22:18:27.986Z,97.70
2019-01-19T22:25:31.536Z,97.70
2019-01-19T22:28:10.020Z,97.70
2019-01-19T22:30:45.206Z,97.70
2019-01-19T22:33:16.083Z,98.00
2019-01-19T22:35:44.203Z,98.60
2019-01-19T22:38:11.782Z,98.20
2019-01-19T22:40:41.128Z,98.20
2019-01-19T22:43:12.720Z,98.60
2019-01-19T22:45:41.184Z,98.40
2019-01-19T22:48:40.443Z,98.70
2019-01-19T22:51:34.101Z,98.40
2019-01-19T22:54:01.973Z,98.40
2019-01-19T22:56:29.899Z,98.20
2019-01-19T22:59:03.954Z,97.70
2019-01-19T23:05:44.801Z,98.30
2019-01-19T23:08:12.538Z,98.30
2019-01-19T23:10:40.606Z,98.40
2019-01-19T23:13:45.960Z,98.50
2019-01-19T23:23:11.353Z,98.40
2019-01-19T23:29:49.888Z,98.20
2019-01-19T23:32:29.861Z,99.10
2019-01-19T23:35:20.430Z,99.10
2019-01-19T23:38:19.325Z,99.10
2019-01-19T23:40:55.941Z,99.30
2019-01-19T23:43:33.602Z,99.90
2019-01-19T23:46:01.167Z,99.50
2019-01-19T23:49:26.763Z,99.80
2019-01-19T23:51:54.940Z,99.40
